createdAt,value
2023-02-19T00:01:57.791Z,20.23
2023-02-19T00:04:26.099Z,19.08
2023-02-19T00:06:56.247Z,22.38
2023-02-19T00:09:24.696Z,19.67
2023-02-19T00:11:53.087Z,17.88
2023-02-19T00:14:22.688Z,19.67
2023-02-19T00:16:51.165Z,19.02
2023-02-19T00:19:21.522Z,19.92
2023-02-19T00:21:52.223Z,19.15
2023-02-19T00:24:22.507Z,20.98
2023-02-19T00:26:51.219Z,19.05
2023-02-19T00:29:21.255Z,18.20
2023-02-19T00:31:50.072Z,20.45
2023-02-19T00:34:18.322Z,18.40
2023-02-19T00:36:46.650Z,15.73
2023-02-19T00:39:18.621Z,20.02
2023-02-19T00:41:48.931Z,16.48
2023-02-19T00:44:17.302Z,18.10
2023-02-19T00:46:48.033Z,12.95
2023-02-19T00:49:19.353Z,16.60
2023-02-19T00:51:48.131Z,17.95
2023-02-19T00:54:17.119Z,19.73
2023-02-19T00:56:47.293Z,18.55
2023-02-19T00:59:15.544Z,20.10
2023-02-19T01:01:45.511Z,17.98
2023-02-19T01:04:14.145Z,13.63
2023-02-19T01:06:42.432Z,15.70
2023-02-19T01:09:10.685Z,16.38
2023-02-19T01:11:39.053Z,18.33
2023-02-19T01:14:08.609Z,16.63
2023-02-19T01:16:36.838Z,16.63
2023-02-19T01:19:05.423Z,14.82
2023-02-19T01:21:33.607Z,14.15
2023-02-19T01:24:01.945Z,15.13
2023-02-19T01:26:32.787Z,13.65
2023-02-19T01:29:01.875Z,16.75
2023-02-19T01:31:32.346Z,16.58
2023-02-19T01:34:02.694Z,19.38
2023-02-19T01:36:33.905Z,20.42
2023-02-19T01:39:05.357Z,13.70
2023-02-19T01:41:36.325Z,19.67
2023-02-19T01:44:08.253Z,16.15
2023-02-19T01:46:38.987Z,15.90
2023-02-19T01:49:11.983Z,17.65
2023-02-19T01:51:43.552Z,13.35
2023-02-19T01:54:14.677Z,16.23
2023-02-19T01:56:44.876Z,17.13
2023-02-19T01:59:13.854Z,17.48
2023-02-19T02:01:43.654Z,16.17
2023-02-19T02:04:14.810Z,17.25
2023-02-19T02:06:49.158Z,14.52
2023-02-19T02:09:36.371Z,16.48
2023-02-19T02:12:05.124Z,16.95
2023-02-19T02:14:37.554Z,13.57
2023-02-19T02:17:14.489Z,12.82
2023-02-19T02:20:02.556Z,17.33
2023-02-19T02:22:37.615Z,16.27
2023-02-19T02:25:43.670Z,13.20
2023-02-19T02:28:38.477Z,13.70
2023-02-19T02:31:11.432Z,14.23
2023-02-19T02:33:45.865Z,16.55
2023-02-19T02:36:18.205Z,18.35
2023-02-19T02:38:48.764Z,17.42
2023-02-19T02:41:17.515Z,17.15
2023-02-19T02:43:45.757Z,21.33
2023-02-19T02:46:21.212Z,15.75
2023-02-19T02:48:55.510Z,17.83
2023-02-19T02:51:28.726Z,15.02
2023-02-19T02:54:19.031Z,16.50
2023-02-19T02:56:49.343Z,22.05
2023-02-19T02:59:20.841Z,14.20
2023-02-19T03:02:12.404Z,16.52
2023-02-19T03:05:01.784Z,21.13
2023-02-19T03:07:36.404Z,19.77
2023-02-19T03:10:09.084Z,22.90
2023-02-19T03:12:56.425Z,16.83
2023-02-19T03:15:45.669Z,17.10
2023-02-19T03:18:35.199Z,18.80
2023-02-19T03:21:08.725Z,15.35
2023-02-19T03:23:56.960Z,17.08
2023-02-19T03:26:27.686Z,17.33
2023-02-19T03:29:15.485Z,18.52
2023-02-19T03:31:46.165Z,18.58
2023-02-19T03:34:21.520Z,18.90
2023-02-19T03:36:55.262Z,17.38
2023-02-19T03:42:01.369Z,16.35
2023-02-19T03:44:40.040Z,16.88
2023-02-19T03:47:17.078Z,18.42
2023-02-19T03:49:53.103Z,18.20
2023-02-19T03:52:27.069Z,15.63
2023-02-19T03:55:04.715Z,16.15
2023-02-19T03:57:38.943Z,20.95
2023-02-19T04:00:12.673Z,20.25
2023-02-19T04:05:17.709Z,23.20
2023-02-19T04:07:50.674Z,18.25
2023-02-19T04:10:20.673Z,15.93
2023-02-19T04:12:54.701Z,14.35
2023-02-19T04:15:27.764Z,17.40
2023-02-19T04:18:01.646Z,18.23
2023-02-19T04:20:36.640Z,22.00
2023-02-19T04:23:05.041Z,15.57
2023-02-19T04:25:34.509Z,15.13
2023-02-19T04:28:03.463Z,21.08
2023-02-19T04:30:32.041Z,22.48
2023-02-19T04:33:00.484Z,17.85
2023-02-19T04:35:30.358Z,22.23
2023-02-19T04:37:58.590Z,21.50
2023-02-19T04:40:26.934Z,18.02
2023-02-19T04:42:55.543Z,11.73
2023-02-19T04:45:23.717Z,19.70
2023-02-19T04:47:51.988Z,14.93
2023-02-19T04:50:20.452Z,15.93
2023-02-19T04:52:50.061Z,17.75
2023-02-19T04:55:18.680Z,15.88
2023-02-19T04:57:47.081Z,20.50
2023-02-19T05:00:15.658Z,17.17
2023-02-19T05:02:44.003Z,21.08
2023-02-19T05:05:12.394Z,19.58
2023-02-19T05:07:40.601Z,19.67
2023-02-19T05:10:10.558Z,16.77
2023-02-19T05:12:38.889Z,19.83
2023-02-19T05:15:07.503Z,16.02
2023-02-19T05:17:36.101Z,20.85
2023-02-19T05:20:05.116Z,19.55
2023-02-19T05:22:33.391Z,19.58
2023-02-19T05:25:01.590Z,18.83
2023-02-19T05:27:32.385Z,19.98
2023-02-19T05:30:00.590Z,15.48
2023-02-19T05:32:29.004Z,22.35
2023-02-19T05:34:57.246Z,15.25
2023-02-19T05:37:25.545Z,15.75
2023-02-19T05:39:53.799Z,17.17
2023-02-19T05:42:22.054Z,20.13
2023-02-19T05:44:51.638Z,23.17
2023-02-19T05:47:20.060Z,18.75
2023-02-19T05:49:48.545Z,14.45
2023-02-19T05:52:16.976Z,15.48
2023-02-19T05:54:45.208Z,16.45
2023-02-19T05:57:13.619Z,20.77
2023-02-19T05:59:42.000Z,17.58
2023-02-19T06:02:11.975Z,15.70
2023-02-19T06:04:40.189Z,14.38
2023-02-19T06:07:08.712Z,15.38
2023-02-19T06:09:37.128Z,15.25
2023-02-19T06:12:06.004Z,14.82
2023-02-19T06:14:34.278Z,15.57
2023-02-19T06:17:02.434Z,17.25
2023-02-19T06:19:32.270Z,14.55
2023-02-19T06:22:00.795Z,12.60
2023-02-19T06:24:29.046Z,15.00
2023-02-19T06:26:57.357Z,16.40
2023-02-19T06:29:26.039Z,18.55
2023-02-19T06:31:54.432Z,17.75
2023-02-19T06:34:22.913Z,20.73
2023-02-19T06:36:52.897Z,17.75
2023-02-19T06:39:21.102Z,17.92
2023-02-19T06:41:49.482Z,20.85
2023-02-19T06:44:18.110Z,16.05
2023-02-19T06:46:46.378Z,20.17
2023-02-19T06:49:15.493Z,14.18
2023-02-19T06:51:44.127Z,18.45
2023-02-19T06:54:14.055Z,14.30
2023-02-19T06:56:46.099Z,14.35
2023-02-19T06:59:17.882Z,17.73
2023-02-19T07:01:47.409Z,18.75
2023-02-19T07:04:15.964Z,15.95
2023-02-19T07:06:44.371Z,19.88
2023-02-19T07:09:14.019Z,18.75
2023-02-19T07:11:42.550Z,20.08
2023-02-19T07:14:16.292Z,15.32
2023-02-19T07:19:13.035Z,19.13
2023-02-19T07:21:42.561Z,18.92
2023-02-19T07:24:13.120Z,16.52
2023-02-19T07:26:41.342Z,14.13
2023-02-19T07:29:11.470Z,17.13
2023-02-19T07:31:39.758Z,14.77
2023-02-19T07:34:09.033Z,15.02
2023-02-19T07:36:37.759Z,12.80
2023-02-19T07:39:06.834Z,15.82
2023-02-19T07:41:37.851Z,15.52
2023-02-19T07:44:06.480Z,13.10
2023-02-19T07:46:34.760Z,13.13
2023-02-19T07:49:03.019Z,14.20
2023-02-19T07:51:31.647Z,12.68
2023-02-19T07:53:59.845Z,16.60
2023-02-19T07:56:28.863Z,15.23
2023-02-19T07:58:58.719Z,14.50
2023-02-19T08:01:40.799Z,16.25
2023-02-19T08:04:09.864Z,18.50
2023-02-19T08:06:38.090Z,14.00
2023-02-19T08:09:07.149Z,15.52
2023-02-19T08:11:53.296Z,13.90
2023-02-19T08:14:26.484Z,12.15
2023-02-19T08:16:55.507Z,11.40
2023-02-19T08:19:24.343Z,13.82
2023-02-19T08:21:53.567Z,14.27
2023-02-19T08:24:22.191Z,12.18
2023-02-19T08:26:50.658Z,15.50
2023-02-19T08:29:18.858Z,15.70
2023-02-19T08:31:48.646Z,14.88
2023-02-19T08:34:17.081Z,14.90
2023-02-19T08:36:45.388Z,15.40
2023-02-19T08:39:13.860Z,16.65
2023-02-19T08:41:42.144Z,14.05
2023-02-19T08:44:12.520Z,14.68
2023-02-19T08:46:41.230Z,15.05
2023-02-19T08:49:10.960Z,16.98
2023-02-19T08:51:39.289Z,13.65
2023-02-19T08:54:07.689Z,14.40
2023-02-19T08:56:36.152Z,15.40
2023-02-19T08:59:04.508Z,12.82
2023-02-19T09:01:32.997Z,16.20
2023-02-19T09:04:01.518Z,14.18
2023-02-19T09:06:31.162Z,16.38
2023-02-19T09:08:59.450Z,12.00
2023-02-19T09:11:27.834Z,12.10
2023-02-19T09:13:57.603Z,12.35
2023-02-19T09:16:25.788Z,11.35
2023-02-19T09:18:58.938Z,13.05
2023-02-19T09:21:27.438Z,15.07
2023-02-19T09:23:57.047Z,12.02
2023-02-19T09:26:25.691Z,16.73
2023-02-19T09:28:54.108Z,13.50
2023-02-19T09:31:22.406Z,13.60
2023-02-19T09:33:50.910Z,10.63
2023-02-19T09:36:20.027Z,13.85
2023-02-19T09:38:48.323Z,14.15
2023-02-19T09:41:23.955Z,15.60
2023-02-19T09:43:52.385Z,11.70
2023-02-19T09:46:29.727Z,14.35
2023-02-19T09:49:04.673Z,14.00
2023-02-19T09:51:35.486Z,13.55
2023-02-19T09:54:07.567Z,16.63
2023-02-19T09:56:37.585Z,18.50
2023-02-19T09:59:06.795Z,13.13
2023-02-19T10:01:39.151Z,11.43
2023-02-19T10:04:07.521Z,13.48
2023-02-19T10:06:36.381Z,15.38
2023-02-19T10:09:19.072Z,14.70
2023-02-19T10:11:49.946Z,13.48
2023-02-19T10:14:25.974Z,13.38
2023-02-19T10:16:54.711Z,13.77
2023-02-19T10:19:23.108Z,15.23
2023-02-19T10:21:51.450Z,15.52
2023-02-19T10:24:23.411Z,15.52
2023-02-19T10:26:54.034Z,11.40
2023-02-19T10:29:24.622Z,12.27
2023-02-19T10:32:14.527Z,14.65
2023-02-19T10:34:42.739Z,11.35
2023-02-19T10:37:16.097Z,11.88
2023-02-19T10:39:47.788Z,16.70
2023-02-19T10:42:20.136Z,10.82
2023-02-19T10:44:52.908Z,16.48
2023-02-19T10:47:24.979Z,11.37
2023-02-19T10:49:54.172Z,13.65
2023-02-19T10:52:26.710Z,17.30
2023-02-19T10:54:58.500Z,15.85
2023-02-19T10:57:35.383Z,11.57
2023-02-19T11:00:20.130Z,11.23
2023-02-19T11:02:48.603Z,12.55
2023-02-19T11:05:19.981Z,12.27
2023-02-19T11:07:51.226Z,11.40
2023-02-19T11:10:27.881Z,13.63
2023-02-19T11:13:00.440Z,10.05
2023-02-19T11:15:31.480Z,9.82
2023-02-19T11:18:11.858Z,10.77
2023-02-19T11:20:46.752Z,11.25
2023-02-19T11:23:18.680Z,13.43
2023-02-19T11:25:48.517Z,12.10
2023-02-19T11:28:33.574Z,10.75
2023-02-19T11:31:24.793Z,8.98
2023-02-19T11:33:57.651Z,9.43
2023-02-19T11:36:33.276Z,9.27
2023-02-19T11:39:23.253Z,9.68
2023-02-19T11:42:14.228Z,9.18
2023-02-19T11:45:01.632Z,10.88
2023-02-19T11:47:57.318Z,7.97
2023-02-19T11:50:30.655Z,8.48
2023-02-19T11:53:14.630Z,10.38
2023-02-19T11:58:45.730Z,11.77
2023-02-19T12:01:23.082Z,12.32
2023-02-19T12:04:23.634Z,10.40
2023-02-19T12:07:03.002Z,8.90
2023-02-19T12:09:41.007Z,10.80
2023-02-19T12:12:22.779Z,9.48
2023-02-19T12:15:23.809Z,8.85
2023-02-19T12:18:31.821Z,10.65
2023-02-19T12:21:13.313Z,11.50
2023-02-19T12:24:11.379Z,11.45
2023-02-19T12:26:47.965Z,10.88
2023-02-19T12:29:29.705Z,9.68
2023-02-19T12:32:20.055Z,8.27
2023-02-19T12:35:19.022Z,11.15
2023-02-19T12:37:54.156Z,11.35
2023-02-19T12:40:39.097Z,10.27
2023-02-19T12:43:14.873Z,11.07
2023-02-19T12:45:48.497Z,12.50
2023-02-19T12:50:54.746Z,8.45
2023-02-19T12:53:34.168Z,10.32
2023-02-19T12:56:05.863Z,9.80
2023-02-19T12:58:41.107Z,11.57
2023-02-19T13:01:12.662Z,11.77
2023-02-19T13:03:49.297Z,100.88
2023-02-19T13:06:34.060Z,18.90
2023-02-19T13:09:08.619Z,10.13
2023-02-19T13:11:41.708Z,7.75
2023-02-19T13:14:21.141Z,12.65
2023-02-19T13:16:55.920Z,9.75
2023-02-19T13:19:24.805Z,8.77
2023-02-19T13:22:18.200Z,10.07
2023-02-19T13:24:47.974Z,8.77
2023-02-19T13:27:43.394Z,8.65
2023-02-19T13:30:30.805Z,9.38
2023-02-19T13:33:08.722Z,8.68
2023-02-19T13:36:15.743Z,9.45
2023-02-19T13:38:48.154Z,7.85
2023-02-19T13:41:29.487Z,9.57
2023-02-19T13:44:01.193Z,10.23
2023-02-19T13:46:38.076Z,10.45
2023-02-19T13:49:44.788Z,7.00
2023-02-19T13:52:40.927Z,7.03
2023-02-19T13:55:49.806Z,7.57
2023-02-19T13:58:39.734Z,7.60
2023-02-19T14:01:09.688Z,8.50
2023-02-19T14:03:47.525Z,7.78
2023-02-19T14:06:15.766Z,7.57
2023-02-19T14:08:56.221Z,5.57
2023-02-19T14:12:01.650Z,7.28
2023-02-19T14:14:36.687Z,6.38
2023-02-19T14:17:26.873Z,7.38
2023-02-19T14:19:58.421Z,5.93
2023-02-19T14:23:01.504Z,5.43
2023-02-19T14:25:46.769Z,8.25
2023-02-19T14:28:29.965Z,5.82
2023-02-19T14:31:03.966Z,8.10
2023-02-19T14:33:35.111Z,6.93
2023-02-19T14:36:07.438Z,7.28
2023-02-19T14:38:40.030Z,10.68
2023-02-19T14:41:09.038Z,7.18
2023-02-19T14:43:38.548Z,6.53
2023-02-19T14:46:15.273Z,7.82
2023-02-19T14:48:46.397Z,9.23
2023-02-19T14:51:22.056Z,8.60
2023-02-19T14:53:51.127Z,7.80
2023-02-19T14:56:22.939Z,8.13
2023-02-19T14:59:10.621Z,9.07
2023-02-19T15:01:40.569Z,9.15
2023-02-19T15:04:24.425Z,11.70
2023-02-19T15:06:56.354Z,7.85
2023-02-19T15:09:30.904Z,7.65
2023-02-19T15:12:00.029Z,9.13
2023-02-19T15:14:30.737Z,11.55
2023-02-19T15:17:04.194Z,9.20
2023-02-19T15:19:36.213Z,9.52
2023-02-19T15:22:05.086Z,9.15
2023-02-19T15:24:33.664Z,7.93
2023-02-19T15:27:01.994Z,7.88
2023-02-19T15:29:30.282Z,8.57
2023-02-19T15:32:02.430Z,7.78
2023-02-19T15:34:33.049Z,10.20
2023-02-19T15:37:04.192Z,7.97
2023-02-19T15:39:39.057Z,9.90
2023-02-19T15:42:12.334Z,7.10
2023-02-19T15:44:47.719Z,10.05
2023-02-19T15:47:26.395Z,11.40
2023-02-19T15:50:02.456Z,15.38
2023-02-19T15:52:38.238Z,9.13
2023-02-19T15:55:17.576Z,9.95
2023-02-19T15:57:50.439Z,9.90
2023-02-19T16:00:23.478Z,8.52
2023-02-19T16:02:53.776Z,7.53
2023-02-19T16:05:27.615Z,8.07
2023-02-19T16:08:17.266Z,8.52
2023-02-19T16:10:56.022Z,8.30
2023-02-19T16:13:26.754Z,7.25
2023-02-19T16:16:04.737Z,8.50
2023-02-19T16:18:35.704Z,9.00
2023-02-19T16:21:09.452Z,9.70
2023-02-19T16:23:43.367Z,7.72
2023-02-19T16:26:12.162Z,10.40
2023-02-19T16:28:42.861Z,8.68
2023-02-19T16:31:14.060Z,10.43
2023-02-19T16:33:46.114Z,11.48
2023-02-19T16:36:34.320Z,16.60
2023-02-19T16:39:15.409Z,9.65
2023-02-19T16:42:16.616Z,7.97
2023-02-19T16:44:45.736Z,9.32
2023-02-19T16:47:35.938Z,12.27
2023-02-19T16:50:13.674Z,8.52
2023-02-19T16:52:52.758Z,8.80
2023-02-19T16:55:21.102Z,11.90
2023-02-19T16:57:49.654Z,9.98
2023-02-19T17:00:19.913Z,9.32
2023-02-19T17:02:48.923Z,12.05
2023-02-19T17:05:21.012Z,10.07
2023-02-19T17:07:49.941Z,8.48
2023-02-19T17:10:20.537Z,12.10
2023-02-19T17:12:48.880Z,10.82
2023-02-19T17:15:17.328Z,10.80
2023-02-19T17:17:46.105Z,10.25
2023-02-19T17:20:26.500Z,13.68
2023-02-19T17:22:54.752Z,10.68
2023-02-19T17:25:24.078Z,11.05
2023-02-19T17:27:52.487Z,13.57
2023-02-19T17:30:26.821Z,15.25
2023-02-19T17:32:56.452Z,16.30
2023-02-19T17:35:26.407Z,19.33
2023-02-19T17:37:54.807Z,12.85
2023-02-19T17:40:32.752Z,14.10
2023-02-19T17:43:02.111Z,13.93
2023-02-19T17:45:30.687Z,13.68
2023-02-19T17:47:59.047Z,12.85
2023-02-19T17:50:30.362Z,14.98
2023-02-19T17:52:59.009Z,12.38
2023-02-19T17:55:28.041Z,12.30
2023-02-19T17:57:56.473Z,16.20
2023-02-19T18:00:27.135Z,11.65
2023-02-19T18:02:56.228Z,11.45
2023-02-19T18:05:25.003Z,14.10
2023-02-19T18:07:54.670Z,15.82
2023-02-19T18:10:24.833Z,15.25
2023-02-19T18:12:53.182Z,14.85
2023-02-19T18:15:23.597Z,13.55
2023-02-19T18:17:51.967Z,14.07
2023-02-19T18:20:22.410Z,13.70
2023-02-19T18:22:51.105Z,15.15
2023-02-19T18:25:21.505Z,13.73
2023-02-19T18:27:50.605Z,12.25
2023-02-19T18:30:20.887Z,13.02
2023-02-19T18:32:50.199Z,15.38
2023-02-19T18:35:21.084Z,13.80
2023-02-19T18:37:52.935Z,12.18
2023-02-19T18:40:23.333Z,10.50
2023-02-19T18:42:51.562Z,12.57
2023-02-19T18:45:19.956Z,11.63
2023-02-19T18:47:49.324Z,10.30
2023-02-19T18:50:19.129Z,12.90
2023-02-19T18:52:47.518Z,11.68
2023-02-19T18:55:16.370Z,14.10
2023-02-19T18:57:46.705Z,12.60
2023-02-19T19:00:20.405Z,15.80
2023-02-19T19:05:23.408Z,15.68
2023-02-19T19:07:52.509Z,15.65
2023-02-19T19:10:21.589Z,15.85
2023-02-19T19:12:51.897Z,15.48
2023-02-19T19:15:20.421Z,14.73
2023-02-19T19:17:49.750Z,17.98
2023-02-19T19:20:20.026Z,16.63
2023-02-19T19:22:50.907Z,14.13
2023-02-19T19:25:19.221Z,14.88
2023-02-19T19:27:47.815Z,14.55
2023-02-19T19:30:18.134Z,15.85
2023-02-19T19:32:48.700Z,17.38
2023-02-19T19:35:18.357Z,13.52
2023-02-19T19:37:46.634Z,13.45
2023-02-19T19:40:16.719Z,15.48
2023-02-19T19:42:45.355Z,19.35
2023-02-19T19:45:18.034Z,16.10
2023-02-19T19:47:46.244Z,22.42
2023-02-19T19:50:14.517Z,21.25
2023-02-19T19:52:43.093Z,24.33
2023-02-19T19:55:11.747Z,21.13
2023-02-19T19:57:40.980Z,23.98
2023-02-19T20:00:10.670Z,16.90
2023-02-19T20:02:40.715Z,16.00
2023-02-19T20:05:09.356Z,15.93
2023-02-19T20:07:37.762Z,15.00
2023-02-19T20:10:07.319Z,19.00
2023-02-19T20:12:35.569Z,19.17
2023-02-19T20:15:04.317Z,15.75
2023-02-19T20:17:32.604Z,16.83
2023-02-19T20:20:02.519Z,17.60
2023-02-19T20:22:31.015Z,17.48
2023-02-19T20:24:59.481Z,22.40
2023-02-19T20:27:27.695Z,17.02
2023-02-19T20:29:56.335Z,19.33
2023-02-19T20:32:24.650Z,17.30
2023-02-19T20:34:52.887Z,18.02
2023-02-19T20:37:22.711Z,18.63
2023-02-19T20:39:50.943Z,18.45
2023-02-19T20:42:20.073Z,17.90
2023-02-19T20:44:48.534Z,18.20
2023-02-19T20:47:16.970Z,19.08
2023-02-19T20:49:47.162Z,19.00
2023-02-19T20:52:21.007Z,18.42
2023-02-19T20:54:50.601Z,17.85
2023-02-19T20:57:18.987Z,18.80
2023-02-19T20:59:47.335Z,18.15
2023-02-19T21:02:18.953Z,19.33
2023-02-19T21:04:48.085Z,17.63
2023-02-19T21:07:17.011Z,18.88
2023-02-19T21:09:45.244Z,18.77
2023-02-19T21:12:15.040Z,22.52
2023-02-19T21:14:43.530Z,20.70
2023-02-19T21:17:11.817Z,22.20
2023-02-19T21:19:40.539Z,22.65
2023-02-19T21:22:09.065Z,21.02
2023-02-19T21:24:37.413Z,25.13
2023-02-19T21:27:05.874Z,24.30
2023-02-19T21:29:35.600Z,22.55
2023-02-19T21:32:03.972Z,24.27
2023-02-19T21:34:32.445Z,24.80
2023-02-19T21:37:01.046Z,24.85
2023-02-19T21:39:31.273Z,24.25
2023-02-19T21:42:00.274Z,24.58
2023-02-19T21:44:29.494Z,26.70
2023-02-19T21:46:59.292Z,25.13
2023-02-19T21:49:27.749Z,25.60
2023-02-19T21:51:56.176Z,26.05
2023-02-19T21:54:26.114Z,24.85
2023-02-19T21:56:55.109Z,22.50
2023-02-19T21:59:24.232Z,26.10
2023-02-19T22:01:52.475Z,23.58
2023-02-19T22:04:24.620Z,23.90
2023-02-19T22:06:56.431Z,21.35
2023-02-19T22:09:25.207Z,25.40
2023-02-19T22:11:53.907Z,24.00
2023-02-19T22:14:22.251Z,22.77
2023-02-19T22:16:50.508Z,22.08
2023-02-19T22:19:18.762Z,24.88
2023-02-19T22:21:48.591Z,26.20
2023-02-19T22:24:19.256Z,24.83
2023-02-19T22:26:48.156Z,27.15
2023-02-19T22:29:17.716Z,25.52
2023-02-19T22:31:46.214Z,23.08
2023-02-19T22:34:15.600Z,24.83
2023-02-19T22:36:44.570Z,24.35
2023-02-19T22:39:18.819Z,28.30
2023-02-19T22:41:47.563Z,24.50
2023-02-19T22:44:16.758Z,29.77
2023-02-19T22:46:49.536Z,29.38
2023-02-19T22:49:18.187Z,26.53
2023-02-19T22:51:51.897Z,30.27
2023-02-19T22:56:55.255Z,25.73
2023-02-19T22:59:24.033Z,24.73
2023-02-19T23:01:52.567Z,25.40
2023-02-19T23:04:22.261Z,25.15
2023-02-19T23:06:50.955Z,23.98
2023-02-19T23:09:23.474Z,29.05
2023-02-19T23:11:52.534Z,26.50
2023-02-19T23:14:24.395Z,26.67
2023-02-19T23:16:52.819Z,26.35
2023-02-19T23:19:21.792Z,25.95
2023-02-19T23:21:50.622Z,30.00
2023-02-19T23:24:19.178Z,31.15
2023-02-19T23:26:50.449Z,25.33
2023-02-19T23:29:20.169Z,28.98
2023-02-19T23:31:49.055Z,24.35
2023-02-19T23:34:17.855Z,24.85
2023-02-19T23:36:48.304Z,29.65
2023-02-19T23:39:18.850Z,26.92
2023-02-19T23:41:49.686Z,28.48
2023-02-19T23:44:18.425Z,33.25
2023-02-19T23:46:46.846Z,35.45
2023-02-19T23:49:15.224Z,33.63
2023-02-19T23:51:43.636Z,31.58
2023-02-19T23:54:12.339Z,34.15
2023-02-19T23:56:40.623Z,30.85
2023-02-19T23:59:10.279Z,32.40
